Time;durP1;ratioP1;P1;durP2;ratioP2;P2;SDS_P1;SDS_P2;PMS_P1;PMS_P2;Temp;Humidity;BMP_temperature;BMP_pressure;BME280_temperature;BME280_humidity;BME280_pressure;Samples;Min_cycle;Max_cycle;Signal;HPM_P1;HPM_P2
2021/12/22 00:00:16;;;;;;;16.23;10.38;;;-5.20;99.90;;;;;;5069568;28;20211;-71
2021/12/22 00:02:46;;;;;;;13.48;8.80;;;-5.20;99.90;;;;;;5068867;28;20235;-71
2021/12/22 00:05:15;;;;;;;12.82;10.45;;;-5.30;99.90;;;;;;5069738;28;20202;-71
2021/12/22 00:07:42;;;;;;;15.13;10.55;;;-5.30;99.90;;;;;;5069104;28;20301;-71
2021/12/22 00:10:09;;;;;;;15.60;10.35;;;-5.30;99.90;;;;;;5069765;28;20228;-71
2021/12/22 00:12:38;;;;;;;11.43;9.38;;;-5.30;99.90;;;;;;5068802;28;20630;-71
2021/12/22 00:15:05;;;;;;;15.15;9.80;;;-5.30;99.90;;;;;;5068773;28;20225;-71
2021/12/22 00:17:32;;;;;;;12.35;9.52;;;-5.40;99.90;;;;;;5069119;28;20196;-71
2021/12/22 00:19:59;;;;;;;11.55;9.48;;;-5.40;99.90;;;;;;5069638;28;20211;-72
2021/12/22 00:22:26;;;;;;;13.95;8.88;;;-5.40;99.90;;;;;;5068346;28;20672;-71
2021/12/22 00:24:52;;;;;;;13.90;10.30;;;-5.40;99.90;;;;;;5069300;28;20200;-72
2021/12/22 00:27:19;;;;;;;14.57;9.80;;;-5.50;99.90;;;;;;5069389;28;20204;-72
2021/12/22 00:29:49;;;;;;;15.50;9.85;;;-5.50;99.90;;;;;;5069108;28;20290;-71
2021/12/22 00:32:17;;;;;;;13.65;9.70;;;-5.50;99.90;;;;;;5068699;28;20481;-71
2021/12/22 00:34:52;;;;;;;13.73;10.35;;;-5.50;99.90;;;;;;5068995;28;20228;-72
2021/12/22 00:37:21;;;;;;;12.40;9.43;;;-5.50;99.90;;;;;;5068935;28;20206;-71
2021/12/22 00:39:48;;;;;;;12.23;9.30;;;-5.60;99.90;;;;;;5069523;28;20205;-71
2021/12/22 00:42:15;;;;;;;13.35;9.65;;;-5.60;99.90;;;;;;5068563;28;20207;-71
2021/12/22 00:44:46;;;;;;;12.88;8.98;;;-5.60;99.90;;;;;;5068529;28;20205;-71
2021/12/22 00:47:15;;;;;;;12.32;9.07;;;-5.60;99.90;;;;;;5070906;28;20204;-71
2021/12/22 00:49:42;;;;;;;15.93;9.50;;;-5.60;99.90;;;;;;5072987;28;20586;-71
2021/12/22 00:52:08;;;;;;;11.95;9.90;;;-5.60;99.90;;;;;;5073612;28;20212;-71
2021/12/22 00:54:35;;;;;;;16.25;8.75;;;-5.70;99.90;;;;;;5072986;28;20318;-71
2021/12/22 00:57:04;;;;;;;15.43;9.02;;;-5.70;99.90;;;;;;5073904;28;20227;-71
2021/12/22 00:59:33;;;;;;;15.65;9.95;;;-5.70;99.90;;;;;;5072267;28;20550;-72
2021/12/22 01:02:01;;;;;;;15.95;10.40;;;-5.70;99.90;;;;;;5072507;28;20734;-72
2021/12/22 01:04:29;;;;;;;19.10;11.70;;;-5.70;99.90;;;;;;5072812;28;20225;-72
2021/12/22 01:06:56;;;;;;;13.60;9.57;;;-5.70;99.90;;;;;;5072618;28;20197;-72
2021/12/22 01:09:23;;;;;;;14.65;10.07;;;-5.80;99.90;;;;;;5072801;28;20204;-71
2021/12/22 01:11:50;;;;;;;14.57;10.00;;;-5.80;99.90;;;;;;5072167;28;20685;-72
2021/12/22 01:14:17;;;;;;;12.90;9.25;;;-5.80;99.90;;;;;;5072143;28;20652;-72
2021/12/22 01:16:47;;;;;;;17.05;9.98;;;-5.80;99.90;;;;;;5072573;28;20224;-71
2021/12/22 01:19:21;;;;;;;13.52;10.77;;;-5.80;99.90;;;;;;5072908;28;20204;-71
2021/12/22 01:21:55;;;;;;;12.57;10.45;;;-5.80;99.90;;;;;;5071923;28;20222;-71
2021/12/22 01:24:29;;;;;;;17.58;11.60;;;-5.80;99.90;;;;;;5072569;28;20382;-71
2021/12/22 01:27:04;;;;;;;17.35;10.00;;;-5.80;99.90;;;;;;5072698;28;20659;-71
2021/12/22 01:29:31;;;;;;;14.00;10.20;;;-5.90;99.90;;;;;;5072301;28;20211;-71
2021/12/22 01:31:58;;;;;;;15.07;10.23;;;-5.90;99.90;;;;;;5071918;28;20576;-71
2021/12/22 01:34:25;;;;;;;16.83;12.25;;;-5.80;99.90;;;;;;5071793;28;20250;-71
2021/12/22 01:36:53;;;;;;;14.45;10.70;;;-5.90;99.90;;;;;;5071970;28;20734;-71
2021/12/22 01:39:20;;;;;;;15.35;10.40;;;-5.90;99.90;;;;;;5072060;28;20200;-71
2021/12/22 01:41:47;;;;;;;17.48;11.82;;;-5.90;99.90;;;;;;5071970;28;20204;-71
2021/12/22 01:44:28;;;;;;;15.25;10.15;;;-5.90;99.90;;;;;;5071458;28;20715;-71
2021/12/22 01:49:50;;;;;;;16.50;10.00;;;-6.00;99.90;;;;;;5071684;28;20199;-71
2021/12/22 01:52:20;;;;;;;16.27;10.73;;;-6.00;99.90;;;;;;5071345;28;20245;-71
2021/12/22 01:54:51;;;;;;;14.52;10.77;;;-6.00;99.90;;;;;;5071536;28;20197;-71
2021/12/22 01:57:19;;;;;;;16.90;10.93;;;-6.00;99.90;;;;;;5071323;28;20231;-71
2021/12/22 01:59:49;;;;;;;15.95;10.05;;;-6.00;99.90;;;;;;5071555;28;20215;-71
2021/12/22 02:02:17;;;;;;;15.50;11.10;;;-6.00;99.90;;;;;;5071911;28;20208;-71
2021/12/22 02:04:44;;;;;;;17.63;10.18;;;-6.00;99.90;;;;;;5072523;28;20216;-70
2021/12/22 02:07:12;;;;;;;14.57;10.70;;;-6.00;99.90;;;;;;5072725;28;20208;-71
2021/12/22 02:10:01;;;;;;;14.73;10.95;;;-6.00;99.90;;;;;;5072671;28;20227;-71
2021/12/22 02:12:31;;;;;;;16.98;10.45;;;-6.00;99.90;;;;;;5071905;28;20231;-71
2021/12/22 02:14:58;;;;;;;16.13;11.05;;;-6.00;99.90;;;;;;5072188;28;20205;-71
2021/12/22 02:17:26;;;;;;;13.88;10.15;;;-6.10;99.90;;;;;;5072264;28;20207;-70
2021/12/22 02:19:54;;;;;;;12.30;9.48;;;-6.10;99.90;;;;;;5072594;28;20576;-70
2021/12/22 02:22:21;;;;;;;11.95;9.38;;;-6.20;99.90;;;;;;5071605;28;20204;-71
2021/12/22 02:24:51;;;;;;;20.27;12.27;;;-6.20;99.90;;;;;;5072406;28;20297;-71
2021/12/22 02:27:25;;;;;;;12.07;10.13;;;-6.10;99.90;;;;;;5072184;28;20207;-71
2021/12/22 02:29:58;;;;;;;17.13;11.35;;;-6.10;99.90;;;;;;5072575;28;20207;-71
2021/12/22 02:32:46;;;;;;;14.00;10.68;;;-6.10;99.90;;;;;;5071532;28;20200;-71
2021/12/22 02:35:15;;;;;;;17.08;11.43;;;-6.20;99.90;;;;;;5072069;28;22622;-71
2021/12/22 02:37:44;;;;;;;17.65;11.77;;;-6.20;99.90;;;;;;5072029;28;20206;-71
2021/12/22 02:40:17;;;;;;;16.90;11.05;;;-6.20;99.90;;;;;;5072108;28;20204;-71
2021/12/22 02:42:46;;;;;;;14.95;10.40;;;-6.30;99.90;;;;;;5071374;28;20703;-71
2021/12/22 02:45:15;;;;;;;15.55;10.88;;;-6.30;99.90;;;;;;5071924;28;20222;-71
2021/12/22 02:47:41;;;;;;;16.80;11.77;;;-6.30;99.90;;;;;;5071795;28;20212;-71
2021/12/22 02:50:11;;;;;;;14.18;9.95;;;-6.30;99.90;;;;;;5071793;28;20584;-71
2021/12/22 02:52:50;;;;;;;17.13;11.05;;;-6.30;99.90;;;;;;5071047;28;20224;-71
2021/12/22 02:55:18;;;;;;;13.48;10.10;;;-6.30;99.90;;;;;;5071572;28;20677;-71
2021/12/22 02:57:48;;;;;;;16.15;11.43;;;-6.30;99.90;;;;;;5071769;28;20205;-71
2021/12/22 03:00:33;;;;;;;15.05;10.95;;;-6.30;99.90;;;;;;5071671;28;20204;-71
2021/12/22 03:03:07;;;;;;;14.25;11.35;;;-6.30;99.90;;;;;;5071194;28;20311;-72
2021/12/22 03:05:36;;;;;;;14.80;10.40;;;-6.30;99.90;;;;;;5071296;28;20245;-71
2021/12/22 03:08:05;;;;;;;13.43;10.30;;;-6.30;99.90;;;;;;5071629;28;20200;-71
2021/12/22 03:10:32;;;;;;;17.65;12.10;;;-6.30;99.90;;;;;;5070979;28;20215;-71
2021/12/22 03:13:03;;;;;;;15.93;10.52;;;-6.40;99.90;;;;;;5070906;28;20281;-71
2021/12/22 03:15:30;;;;;;;13.60;10.57;;;-6.30;99.90;;;;;;5071289;28;20281;-71
2021/12/22 03:17:57;;;;;;;15.43;10.43;;;-6.40;99.90;;;;;;5071313;28;20279;-71
2021/12/22 03:20:24;;;;;;;17.17;11.32;;;-6.40;99.90;;;;;;5071212;28;20201;-71
2021/12/22 03:22:51;;;;;;;14.27;10.15;;;-6.40;99.90;;;;;;5070477;28;20223;-71
2021/12/22 03:25:25;;;;;;;16.05;11.25;;;-6.50;99.90;;;;;;5071060;28;20721;-71
2021/12/22 03:27:53;;;;;;;15.40;10.55;;;-6.50;99.90;;;;;;5071187;28;20291;-71
2021/12/22 03:30:25;;;;;;;21.73;12.05;;;-6.40;99.90;;;;;;5071109;28;20580;-71
2021/12/22 03:32:52;;;;;;;17.02;11.35;;;-6.50;99.90;;;;;;5070489;28;20221;-71
2021/12/22 03:35:21;;;;;;;18.08;12.00;;;-6.40;99.90;;;;;;5070936;28;20212;-71
2021/12/22 03:37:51;;;;;;;16.88;11.75;;;-6.40;99.90;;;;;;5070920;28;20204;-71
2021/12/22 03:40:20;;;;;;;19.08;11.85;;;-6.40;99.90;;;;;;5070761;28;20626;-71
2021/12/22 03:42:47;;;;;;;16.55;11.30;;;-6.40;99.90;;;;;;5071018;28;20224;-72
2021/12/22 03:45:13;;;;;;;17.38;10.80;;;-6.50;99.90;;;;;;5071052;28;20204;-71
2021/12/22 03:47:40;;;;;;;15.93;11.23;;;-6.50;99.90;;;;;;5070749;28;20204;-71
2021/12/22 03:50:09;;;;;;;15.45;9.88;;;-6.60;99.90;;;;;;5070915;28;20208;-71
2021/12/22 03:52:36;;;;;;;15.20;10.82;;;-6.50;99.90;;;;;;5070081;28;20224;-71
2021/12/22 03:55:04;;;;;;;16.85;12.10;;;-6.60;99.90;;;;;;5070586;28;20204;-71
2021/12/22 03:57:32;;;;;;;12.90;10.77;;;-6.60;99.90;;;;;;5070564;28;20649;-71
2021/12/22 03:59:59;;;;;;;18.95;11.63;;;-6.70;99.90;;;;;;5070900;28;20882;-71
2021/12/22 04:02:26;;;;;;;14.80;10.48;;;-6.70;99.90;;;;;;5069842;28;20201;-71
2021/12/22 04:04:53;;;;;;;17.05;11.60;;;-6.70;99.90;;;;;;5070735;28;20201;-71
2021/12/22 04:07:20;;;;;;;15.20;10.27;;;-6.70;99.90;;;;;;5070444;28;20203;-71
2021/12/22 04:14:51;;;;;;;20.00;12.38;;;-6.60;99.90;;;;;;5108215;28;20290;-78
2021/12/22 04:17:18;;;;;;;21.02;10.60;;;-6.70;99.90;;;;;;5110502;28;20225;-77
2021/12/22 04:19:45;;;;;;;15.13;11.35;;;-6.70;99.90;;;;;;5111362;28;20203;-77
2021/12/22 04:22:11;;;;;;;19.10;11.60;;;-6.70;99.90;;;;;;5110006;28;20206;-77
2021/12/22 04:24:38;;;;;;;23.65;12.13;;;-6.70;99.90;;;;;;5098863;28;20199;-79
2021/12/22 04:27:05;;;;;;;18.30;13.00;;;-6.70;99.90;;;;;;5091857;28;20207;-77
2021/12/22 04:29:32;;;;;;;18.85;11.65;;;-6.70;99.90;;;;;;5091710;28;20210;-79
2021/12/22 04:32:00;;;;;;;16.30;10.55;;;-6.70;99.90;;;;;;5090500;28;20210;-77
2021/12/22 04:34:26;;;;;;;13.63;10.95;;;-6.70;99.90;;;;;;5091477;28;20616;-77
2021/12/22 04:36:53;;;;;;;15.48;12.05;;;-6.70;99.90;;;;;;5091604;28;20226;-78
2021/12/22 04:39:20;;;;;;;16.23;11.45;;;-6.80;99.90;;;;;;5090357;28;20203;-77
2021/12/22 04:41:48;;;;;;;15.60;10.50;;;-6.80;99.90;;;;;;5090335;28;20203;-76
2021/12/22 04:44:15;;;;;;;19.02;10.73;;;-6.80;99.90;;;;;;5090681;28;20235;-75
2021/12/22 04:46:41;;;;;;;20.10;11.50;;;-6.80;99.90;;;;;;5091019;28;20209;-75
2021/12/22 04:49:09;;;;;;;20.40;12.65;;;-6.80;99.90;;;;;;5090489;28;20203;-77
2021/12/22 04:51:41;;;;;;;21.33;12.10;;;-6.80;99.90;;;;;;5089935;28;20204;-77
2021/12/22 04:54:17;;;;;;;17.42;11.65;;;-6.80;99.90;;;;;;5090461;28;20228;-76
2021/12/22 04:56:44;;;;;;;16.50;12.10;;;-6.80;99.90;;;;;;5089930;28;20584;-76
2021/12/22 04:59:11;;;;;;;18.90;12.10;;;-6.90;99.90;;;;;;5089670;28;20196;-76
2021/12/22 05:01:38;;;;;;;17.02;11.02;;;-6.80;99.90;;;;;;5089009;28;20578;-78
2021/12/22 05:04:05;;;;;;;17.70;10.73;;;-6.90;99.90;;;;;;5090528;28;20228;-77
2021/12/22 05:06:34;;;;;;;19.92;11.93;;;-6.90;99.90;;;;;;5090809;28;20286;-76
2021/12/22 05:09:01;;;;;;;16.88;10.65;;;-6.90;99.90;;;;;;5090286;28;20236;-77
2021/12/22 05:11:27;;;;;;;22.55;12.00;;;-6.90;99.90;;;;;;5090005;28;20209;-78
2021/12/22 05:13:54;;;;;;;16.15;11.25;;;-6.90;99.90;;;;;;5090303;28;20227;-78
2021/12/22 05:16:21;;;;;;;20.00;10.70;;;-6.90;99.90;;;;;;5090324;28;20247;-77
2021/12/22 05:18:51;;;;;;;16.83;11.15;;;-7.00;99.90;;;;;;5090648;28;20200;-77
2021/12/22 05:21:21;;;;;;;18.20;12.05;;;-7.00;99.90;;;;;;5089691;28;20204;-77
2021/12/22 05:23:49;;;;;;;22.67;12.35;;;-7.00;99.90;;;;;;5090067;28;20348;-77
2021/12/22 05:26:16;;;;;;;20.48;14.45;;;-7.00;99.90;;;;;;5089617;28;20487;-75
2021/12/22 05:28:43;;;;;;;20.42;14.30;;;-7.00;99.90;;;;;;5085911;28;20192;-74
2021/12/22 05:31:09;;;;;;;18.02;11.63;;;-7.00;99.90;;;;;;5086651;28;20200;-74
2021/12/22 05:33:36;;;;;;;15.45;11.00;;;-7.00;99.90;;;;;;5089970;28;20235;-75
2021/12/22 05:36:03;;;;;;;18.25;11.50;;;-6.90;99.90;;;;;;5093545;28;20208;-75
2021/12/22 05:38:30;;;;;;;19.77;12.30;;;-6.90;99.90;;;;;;5093699;28;20204;-74
2021/12/22 05:40:58;;;;;;;18.67;12.40;;;-6.90;99.90;;;;;;5092955;28;20207;-74
2021/12/22 05:43:25;;;;;;;15.00;11.00;;;-6.90;99.90;;;;;;5093379;28;20219;-74
2021/12/22 05:45:51;;;;;;;19.70;11.80;;;-6.90;99.90;;;;;;5097372;28;20211;-75
2021/12/22 05:48:20;;;;;;;20.02;12.80;;;-6.90;99.90;;;;;;5095956;28;20191;-75
2021/12/22 05:50:50;;;;;;;14.73;11.00;;;-6.90;99.90;;;;;;5095460;28;20306;-74
2021/12/22 05:53:17;;;;;;;15.75;11.18;;;-6.90;99.90;;;;;;5093680;28;20219;-74
2021/12/22 05:55:44;;;;;;;18.73;11.68;;;-6.90;99.90;;;;;;5095132;28;20661;-73
2021/12/22 05:58:12;;;;;;;15.65;11.48;;;-7.00;99.90;;;;;;5097203;28;20226;-73
2021/12/22 06:00:39;;;;;;;19.48;11.30;;;-7.00;99.90;;;;;;5096708;28;20274;-75
2021/12/22 06:03:05;;;;;;;17.00;11.38;;;-7.00;99.90;;;;;;5095706;28;20250;-73
2021/12/22 06:05:32;;;;;;;19.35;12.15;;;-7.00;99.90;;;;;;5096552;28;20208;-73
2021/12/22 06:07:59;;;;;;;17.33;11.70;;;-7.00;99.90;;;;;;5096060;28;20196;-74
2021/12/22 06:10:26;;;;;;;21.90;12.50;;;-7.00;99.90;;;;;;5095271;28;20199;-74
2021/12/22 06:12:52;;;;;;;18.95;11.73;;;-7.00;99.90;;;;;;5094574;28;20239;-74
2021/12/22 06:15:20;;;;;;;19.70;12.30;;;-7.00;99.90;;;;;;5094544;28;20207;-74
2021/12/22 06:17:53;;;;;;;15.13;10.55;;;-7.00;99.90;;;;;;5092868;28;20227;-75
2021/12/22 06:20:20;;;;;;;17.05;12.02;;;-7.00;99.90;;;;;;5093050;28;20200;-74
2021/12/22 06:22:47;;;;;;;20.52;12.20;;;-7.00;99.90;;;;;;5092211;28;20230;-74
2021/12/22 06:25:13;;;;;;;20.40;13.13;;;-6.90;99.90;;;;;;5092664;28;20670;-74
2021/12/22 06:27:40;;;;;;;16.50;11.73;;;-7.00;99.90;;;;;;5092680;28;20199;-74
2021/12/22 06:30:08;;;;;;;17.88;11.60;;;-6.90;99.90;;;;;;5092521;28;20199;-74
2021/12/22 06:32:36;;;;;;;18.52;12.05;;;-7.00;99.90;;;;;;5092008;28;20227;-74
2021/12/22 06:35:03;;;;;;;22.05;11.75;;;-7.00;99.90;;;;;;5092532;28;20682;-74
2021/12/22 06:37:30;;;;;;;18.83;11.73;;;-7.00;99.90;;;;;;5092389;28;20219;-74
2021/12/22 06:39:56;;;;;;;22.05;12.10;;;-7.00;99.90;;;;;;5092637;28;20202;-74
2021/12/22 06:42:23;;;;;;;19.48;11.52;;;-7.10;99.90;;;;;;5092083;28;20203;-74
2021/12/22 06:44:50;;;;;;;20.23;12.63;;;-7.10;99.90;;;;;;5092033;28;20196;-74
2021/12/22 06:47:17;;;;;;;18.50;12.02;;;-7.10;99.90;;;;;;5092138;28;20207;-74
2021/12/22 06:49:45;;;;;;;17.10;11.85;;;-7.10;99.90;;;;;;5092308;28;20204;-74
2021/12/22 06:52:12;;;;;;;17.23;11.65;;;-7.00;99.90;;;;;;5091585;28;20204;-74
2021/12/22 06:54:38;;;;;;;16.45;11.85;;;-7.00;99.90;;;;;;5092110;28;20203;-74
2021/12/22 06:57:05;;;;;;;21.80;12.85;;;-7.00;99.90;;;;;;5091985;28;20243;-74
2021/12/22 06:59:32;;;;;;;22.02;11.70;;;-7.00;99.90;;;;;;5092095;28;20207;-74
2021/12/22 07:01:59;;;;;;;17.73;12.55;;;-7.00;99.90;;;;;;5091343;28;20306;-74
2021/12/22 07:04:26;;;;;;;15.38;10.80;;;-7.00;99.90;;;;;;5091190;28;20216;-74
2021/12/22 07:06:54;;;;;;;21.05;12.25;;;-7.00;99.90;;;;;;5091724;28;20200;-74
2021/12/22 07:09:21;;;;;;;16.60;11.35;;;-7.00;99.90;;;;;;5091672;28;21102;-75
2021/12/22 07:11:47;;;;;;;18.80;12.10;;;-7.00;99.90;;;;;;5091129;28;20200;-74
2021/12/22 07:14:14;;;;;;;19.15;12.50;;;-6.90;99.90;;;;;;5091411;28;20227;-75
2021/12/22 07:16:41;;;;;;;19.58;12.30;;;-6.90;99.90;;;;;;5090817;28;20576;-74
2021/12/22 07:19:08;;;;;;;18.95;11.88;;;-6.80;99.90;;;;;;5091087;28;20574;-75
2021/12/22 07:21:35;;;;;;;25.33;12.90;;;-6.80;99.90;;;;;;5090204;28;20564;-74
2021/12/22 07:24:04;;;;;;;19.15;11.82;;;-6.70;99.90;;;;;;5091284;28;20714;-75
2021/12/22 07:26:31;;;;;;;19.42;11.60;;;-6.70;99.90;;;;;;5091324;28;20199;-74
2021/12/22 07:28:58;;;;;;;25.45;14.85;;;-6.60;99.90;;;;;;5090174;28;20196;-75
2021/12/22 07:31:25;;;;;;;21.88;13.10;;;-6.50;99.90;;;;;;5090918;28;20195;-74
2021/12/22 07:34:01;;;;;;;19.20;13.05;;;-6.40;99.90;;;;;;5091191;28;20226;-74
2021/12/22 07:36:27;;;;;;;20.90;13.00;;;-6.30;99.90;;;;;;5091402;28;20203;-73
2021/12/22 07:38:58;;;;;;;20.00;11.65;;;-6.10;99.90;;;;;;5091522;28;20594;-74
2021/12/22 07:41:27;;;;;;;19.63;13.38;;;-5.90;99.90;;;;;;5091138;28;20556;-74
2021/12/22 07:43:54;;;;;;;22.08;12.63;;;-5.90;99.90;;;;;;5091049;28;20223;-74
2021/12/22 07:46:21;;;;;;;22.92;13.18;;;-5.80;99.90;;;;;;5091198;28;20571;-74
2021/12/22 07:48:48;;;;;;;23.33;13.45;;;-5.70;99.90;;;;;;5091441;28;20610;-73
2021/12/22 07:51:15;;;;;;;20.80;12.63;;;-5.60;99.90;;;;;;5090874;28;20203;-71
2021/12/22 07:53:41;;;;;;;20.38;12.35;;;-5.60;99.90;;;;;;5090860;28;20226;-71
2021/12/22 07:56:08;;;;;;;18.45;11.90;;;-5.40;99.90;;;;;;5090855;28;20951;-73
2021/12/22 07:58:36;;;;;;;17.55;11.93;;;-5.20;99.90;;;;;;5090563;28;20716;-74
2021/12/22 08:01:03;;;;;;;17.55;11.80;;;-5.00;99.90;;;;;;5090248;28;20557;-73
2021/12/22 08:03:30;;;;;;;20.50;12.32;;;-4.60;99.90;;;;;;5090710;28;20223;-74
2021/12/22 08:05:59;;;;;;;19.02;11.77;;;-3.90;99.90;;;;;;5091208;28;20208;-73
2021/12/22 08:08:26;;;;;;;18.88;11.35;;;-3.00;99.90;;;;;;5090385;28;20658;-74
2021/12/22 08:10:52;;;;;;;17.10;11.77;;;-2.10;99.90;;;;;;5090236;28;20278;-73
2021/12/22 08:13:19;;;;;;;14.60;11.50;;;-1.20;99.90;;;;;;5090559;28;20231;-74
2021/12/22 08:15:47;;;;;;;15.70;11.10;;;-0.60;99.90;;;;;;5090962;28;20206;-74
2021/12/22 08:18:14;;;;;;;15.68;12.30;;;0.00;99.90;;;;;;5091020;28;20219;-74
2021/12/22 08:20:41;;;;;;;14.05;10.35;;;0.70;99.90;;;;;;5085925;28;20200;-74
2021/12/22 08:23:07;;;;;;;12.02;10.30;;;1.10;99.90;;;;;;5084216;28;20219;-74
2021/12/22 08:25:34;;;;;;;16.27;11.45;;;1.40;99.90;;;;;;5089500;28;20204;-74
2021/12/22 08:28:01;;;;;;;15.73;10.05;;;1.70;99.90;;;;;;5089040;28;20195;-74
2021/12/22 08:30:28;;;;;;;13.38;9.73;;;1.80;99.90;;;;;;5089364;28;20199;-74
2021/12/22 08:32:58;;;;;;;12.60;10.43;;;2.00;99.90;;;;;;5088341;28;20220;-74
2021/12/22 08:35:28;;;;;;;13.82;11.10;;;2.20;99.90;;;;;;5088240;28;20194;-74
2021/12/22 08:40:40;;;;;;;15.27;11.63;;;2.60;99.90;;;;;;5090853;28;20557;-74
2021/12/22 08:43:07;;;;;;;13.45;11.18;;;2.80;99.90;;;;;;5089961;28;20250;-74
2021/12/22 08:45:33;;;;;;;12.77;10.75;;;2.80;99.90;;;;;;5090391;28;20208;-74
2021/12/22 08:48:02;;;;;;;15.18;10.75;;;2.80;99.90;;;;;;5090306;28;20192;-74
2021/12/22 08:50:28;;;;;;;14.23;10.80;;;2.50;99.90;;;;;;5090273;28;20257;-74
2021/12/22 08:52:56;;;;;;;15.18;11.40;;;2.00;99.90;;;;;;5090597;28;20231;-74
2021/12/22 08:55:23;;;;;;;13.80;10.40;;;1.30;99.90;;;;;;5091222;28;20199;-74
2021/12/22 08:57:49;;;;;;;15.48;12.55;;;0.60;99.90;;;;;;5091030;28;20219;-74
2021/12/22 09:00:16;;;;;;;12.25;10.45;;;-0.10;99.90;;;;;;5090364;28;20211;-73
2021/12/22 09:02:45;;;;;;;14.82;11.57;;;-0.80;99.90;;;;;;5090059;28;20223;-74
2021/12/22 09:05:13;;;;;;;15.50;11.07;;;-1.40;99.90;;;;;;5090707;28;20199;-74
2021/12/22 09:07:40;;;;;;;18.60;11.52;;;-1.90;99.90;;;;;;5090918;28;20196;-74
2021/12/22 09:10:08;;;;;;;17.23;12.20;;;-2.30;99.90;;;;;;5094283;28;20683;-74
2021/12/22 09:12:34;;;;;;;17.33;11.63;;;-2.60;99.90;;;;;;5093287;28;20227;-74
2021/12/22 09:15:01;;;;;;;18.70;12.43;;;-2.70;99.90;;;;;;5094231;28;20206;-74
2021/12/22 09:17:28;;;;;;;18.55;12.88;;;-2.80;99.90;;;;;;5093928;28;20247;-74
2021/12/22 09:19:55;;;;;;;17.33;13.40;;;-2.80;99.90;;;;;;5094440;28;20204;-74
2021/12/22 09:22:24;;;;;;;15.77;11.65;;;-2.70;99.90;;;;;;5093321;28;20211;-74
2021/12/22 09:24:50;;;;;;;15.40;11.32;;;-2.50;99.90;;;;;;5094141;28;20211;-74
2021/12/22 09:27:17;;;;;;;18.40;12.55;;;-2.20;99.90;;;;;;5093919;28;20682;-74
2021/12/22 09:29:44;;;;;;;17.15;11.90;;;-1.00;99.90;;;;;;5093923;28;20196;-74
2021/12/22 09:32:14;;;;;;;13.38;10.00;;;0.90;99.90;;;;;;5093211;28;20228;-74
2021/12/22 09:34:42;;;;;;;16.77;10.52;;;3.00;99.90;;;;;;5093792;28;20204;-75
2021/12/22 09:37:09;;;;;;;21.58;11.32;;;5.10;99.90;;;;;;5093438;28;20206;-74
2021/12/22 09:39:37;;;;;;;14.07;11.13;;;6.10;96.90;;;;;;5093687;28;20211;-74
2021/12/22 09:42:04;;;;;;;13.38;10.77;;;7.20;95.60;;;;;;5092717;28;20224;-74
2021/12/22 09:44:36;;;;;;;14.40;11.02;;;7.40;93.90;;;;;;5093334;28;20219;-74
2021/12/22 09:47:05;;;;;;;14.25;11.55;;;7.30;93.80;;;;;;5093118;28;20443;-74
2021/12/22 09:49:48;;;;;;;13.77;10.82;;;7.80;94.10;;;;;;5087927;28;20571;-74
2021/12/22 09:52:21;;;;;;;11.02;9.52;;;8.50;92.60;;;;;;5079552;28;20199;-74
2021/12/22 09:54:51;;;;;;;13.48;10.98;;;8.20;91.70;;;;;;5083903;28;20200;-74
2021/12/22 09:57:24;;;;;;;12.50;10.93;;;7.40;92.00;;;;;;5084202;28;20195;-74
2021/12/22 09:59:55;;;;;;;11.27;10.18;;;6.50;93.40;;;;;;5079281;28;20215;-74
2021/12/22 10:02:28;;;;;;;13.73;10.70;;;6.90;93.00;;;;;;5070565;28;20384;-74
2021/12/22 10:04:56;;;;;;;13.07;10.60;;;7.50;93.00;;;;;;5072198;28;20258;-74
2021/12/22 10:07:29;;;;;;;12.10;10.65;;;8.10;93.10;;;;;;5071010;28;20208;-74
2021/12/22 10:10:07;;;;;;;10.77;9.40;;;8.80;91.50;;;;;;5071442;28;20201;-74
2021/12/22 10:12:35;;;;;;;11.95;10.05;;;9.70;91.20;;;;;;5070067;28;20224;-74
2021/12/22 10:15:09;;;;;;;10.65;9.50;;;11.00;88.10;;;;;;5071338;28;20568;-74
2021/12/22 10:17:40;;;;;;;10.60;9.60;;;11.30;84.90;;;;;;5070521;28;20246;-75
2021/12/22 10:20:10;;;;;;;11.20;9.35;;;10.40;85.80;;;;;;5070391;28;20200;-73
2021/12/22 10:22:39;;;;;;;12.25;10.77;;;9.90;89.20;;;;;;5069973;28;20208;-73
2021/12/22 10:25:14;;;;;;;12.95;10.48;;;9.00;89.20;;;;;;5070509;28;20204;-73
2021/12/22 10:27:47;;;;;;;12.18;10.95;;;9.10;89.00;;;;;;5070332;28;20211;-73
2021/12/22 10:30:35;;;;;;;13.07;10.38;;;9.10;90.00;;;;;;5074192;28;20290;-73
2021/12/22 10:33:11;;;;;;;12.00;10.80;;;9.30;87.20;;;;;;5087228;28;20243;-73
2021/12/22 10:35:39;;;;;;;11.50;10.23;;;8.60;90.70;;;;;;5089303;28;20211;-73
2021/12/22 10:38:09;;;;;;;10.65;9.57;;;9.70;89.80;;;;;;5087181;28;20219;-73
2021/12/22 10:40:41;;;;;;;12.32;10.77;;;10.40;87.00;;;;;;5088888;28;20200;-73
2021/12/22 10:43:15;;;;;;;14.05;10.15;;;11.50;86.30;;;;;;5089048;28;20223;-73
2021/12/22 10:45:42;;;;;;;11.50;10.30;;;12.30;84.50;;;;;;5088940;28;20253;-73
2021/12/22 10:50:57;;;;;;;12.02;10.77;;;13.90;83.20;;;;;;5088909;28;20301;-74
2021/12/22 10:53:24;;;;;;;11.80;10.63;;;13.80;78.90;;;;;;5088941;28;20226;-73
2021/12/22 10:55:56;;;;;;;12.80;11.55;;;12.40;81.50;;;;;;5089235;28;20204;-75
2021/12/22 10:58:27;;;;;;;12.73;11.20;;;12.70;80.70;;;;;;5089857;28;20311;-74
2021/12/22 11:01:08;;;;;;;12.10;10.90;;;13.60;82.10;;;;;;5088507;28;20699;-74
2021/12/22 11:03:44;;;;;;;12.90;11.65;;;14.10;79.20;;;;;;5089411;28;20223;-74
2021/12/22 11:06:16;;;;;;;12.43;11.13;;;12.30;80.70;;;;;;5093051;28;20290;-74
2021/12/22 11:08:53;;;;;;;12.75;10.50;;;11.90;83.20;;;;;;5104644;28;20204;-74
2021/12/22 11:11:21;;;;;;;13.35;10.65;;;12.40;82.70;;;;;;5099023;28;20204;-74
2021/12/22 11:14:03;;;;;;;12.45;10.95;;;11.80;81.80;;;;;;5095769;28;20233;-74
2021/12/22 11:16:30;;;;;;;13.60;12.30;;;11.50;82.90;;;;;;5095819;28;20570;-74
2021/12/22 11:19:08;;;;;;;13.45;12.05;;;10.80;83.50;;;;;;5089301;28;20224;-73
2021/12/22 11:21:36;;;;;;;12.65;10.90;;;10.60;83.00;;;;;;5087985;28;20607;-74
2021/12/22 11:24:03;;;;;;;12.85;11.40;;;10.90;84.50;;;;;;5088101;28;20220;-74
2021/12/22 11:26:31;;;;;;;13.05;10.23;;;11.80;84.10;;;;;;5088780;28;20200;-74
2021/12/22 11:28:58;;;;;;;13.75;11.10;;;11.50;82.20;;;;;;5087892;28;20195;-73
2021/12/22 11:31:26;;;;;;;12.73;10.70;;;10.90;83.60;;;;;;5088330;28;20637;-74
2021/12/22 11:33:54;;;;;;;13.10;10.40;;;11.00;83.80;;;;;;5087783;28;20232;-73
2021/12/22 11:36:20;;;;;;;13.18;11.60;;;11.10;84.50;;;;;;5087724;28;20207;-73
2021/12/22 11:38:49;;;;;;;11.38;10.05;;;10.70;83.40;;;;;;5088042;28;20230;-74
2021/12/22 11:41:19;;;;;;;13.25;10.82;;;10.20;83.90;;;;;;5087723;28;20295;-73
2021/12/22 11:43:48;;;;;;;12.18;10.32;;;9.10;87.70;;;;;;5087604;28;20702;-73
2021/12/22 11:46:15;;;;;;;12.48;11.18;;;8.00;88.80;;;;;;5088086;28;20681;-73
2021/12/22 11:48:43;;;;;;;13.07;10.93;;;7.40;90.00;;;;;;5087145;28;20570;-73
2021/12/22 11:51:23;;;;;;;15.05;12.05;;;7.30;91.00;;;;;;5087549;28;20658;-73
2021/12/22 11:53:52;;;;;;;13.90;10.57;;;7.50;90.40;;;;;;5088045;28;20219;-73
2021/12/22 11:56:36;;;;;;;12.45;9.90;;;7.90;90.40;;;;;;5087372;28;20303;-73
2021/12/22 11:59:04;;;;;;;15.88;10.95;;;7.70;90.10;;;;;;5087768;28;20246;-73
2021/12/22 12:01:33;;;;;;;11.38;9.98;;;7.80;90.10;;;;;;5087141;28;20203;-73
2021/12/22 12:04:14;;;;;;;11.38;10.13;;;7.60;89.90;;;;;;5087244;28;20228;-73
2021/12/22 12:06:48;;;;;;;15.23;10.52;;;7.40;90.30;;;;;;5088288;28;20662;-73
2021/12/22 12:09:15;;;;;;;13.02;10.57;;;7.60;90.10;;;;;;5088349;28;20195;-73
2021/12/22 12:11:47;;;;;;;12.52;10.52;;;8.00;89.20;;;;;;5087138;28;20659;-73
2021/12/22 12:15:01;;;;;;;13.05;10.40;;;7.90;90.30;;;;;;5087420;28;20266;-73
2021/12/22 12:23:24;;;;;;;12.85;10.80;;;6.70;91.00;;;;;;5087403;28;20599;-73
2021/12/22 12:25:50;;;;;;;12.02;10.52;;;6.50;91.40;;;;;;5084151;28;20226;-73
2021/12/22 12:28:19;;;;;;;13.85;10.32;;;6.60;91.80;;;;;;5087528;28;20202;-73
2021/12/22 12:30:49;;;;;;;11.13;9.80;;;6.80;91.90;;;;;;5087331;28;20611;-73
2021/12/22 12:33:27;;;;;;;12.73;10.27;;;7.20;91.50;;;;;;5086892;28;20224;-73
2021/12/22 12:36:04;;;;;;;11.88;10.25;;;7.10;91.60;;;;;;5087584;28;20206;-73
2021/12/22 12:38:45;;;;;;;12.23;10.90;;;6.40;91.30;;;;;;5087312;28;20219;-71
2021/12/22 12:41:19;;;;;;;17.45;11.18;;;5.60;91.70;;;;;;5086020;28;20626;-73
2021/12/22 12:43:56;;;;;;;14.30;10.52;;;5.20;92.80;;;;;;5090250;28;20276;-73
2021/12/22 12:46:42;;;;;;;12.88;9.82;;;5.20;93.00;;;;;;5091647;28;20206;-72
2021/12/22 12:49:37;;;;;;;13.95;10.70;;;5.20;93.00;;;;;;5090838;28;20747;-70
2021/12/22 12:52:09;;;;;;;12.93;10.07;;;5.00;93.70;;;;;;5091372;28;20208;-73
2021/12/22 12:54:40;;;;;;;13.63;11.63;;;5.10;93.40;;;;;;5091234;28;20242;-73
2021/12/22 12:57:27;;;;;;;14.55;9.23;;;4.90;93.10;;;;;;5090784;28;20249;-72
2021/12/22 13:00:01;;;;;;;14.57;10.70;;;4.80;93.80;;;;;;5091371;28;20211;-72